createdAt,value
2018-07-21T00:00:17.149Z,8.23
2018-07-21T00:02:45.222Z,7.30
2018-07-21T00:05:13.252Z,8.00
2018-07-21T00:07:41.493Z,8.23
2018-07-21T00:10:09.630Z,7.67
2018-07-21T00:12:37.745Z,7.90
2018-07-21T00:15:05.936Z,7.80
2018-07-21T00:17:33.992Z,8.07
2018-07-21T00:20:02.126Z,8.80
2018-07-21T00:22:30.204Z,8.10
2018-07-21T00:24:58.381Z,8.03
2018-07-21T00:27:26.607Z,8.93
2018-07-21T00:29:54.772Z,7.93
2018-07-21T00:32:22.824Z,7.80
2018-07-21T00:34:50.810Z,8.03
2018-07-21T00:37:18.868Z,9.13
2018-07-21T00:39:46.929Z,8.53
2018-07-21T00:42:15.093Z,8.63
2018-07-21T00:44:43.296Z,9.13
2018-07-21T00:47:11.442Z,7.97
2018-07-21T00:49:39.505Z,8.00
2018-07-21T00:52:07.600Z,7.73
2018-07-21T00:54:35.692Z,8.77
2018-07-21T00:57:03.723Z,8.20
2018-07-21T00:59:31.877Z,7.87
2018-07-21T01:01:59.953Z,8.40
2018-07-21T01:04:27.994Z,8.77
2018-07-21T01:06:56.088Z,7.97
2018-07-21T01:09:24.115Z,8.00
2018-07-21T01:11:52.185Z,8.23
2018-07-21T01:14:20.352Z,7.53
2018-07-21T01:16:48.424Z,8.90
2018-07-21T01:19:16.445Z,9.20
2018-07-21T01:21:44.524Z,9.03
2018-07-21T01:24:13.559Z,8.43
2018-07-21T01:26:41.624Z,8.10
2018-07-21T01:29:09.662Z,8.50
2018-07-21T01:31:37.709Z,8.30
2018-07-21T01:34:05.795Z,8.20
2018-07-21T01:36:33.798Z,8.03
2018-07-21T01:39:01.807Z,8.30
2018-07-21T01:41:29.952Z,8.30
2018-07-21T01:43:58.059Z,9.10
2018-07-21T01:46:26.139Z,9.53
2018-07-21T01:48:54.304Z,8.67
2018-07-21T01:51:22.386Z,8.73
2018-07-21T01:53:50.446Z,8.87
2018-07-21T01:56:18.549Z,9.10
2018-07-21T01:58:46.658Z,8.90
2018-07-21T02:01:14.707Z,9.00
2018-07-21T02:03:45.911Z,8.30
2018-07-21T02:06:14.073Z,7.80
2018-07-21T02:08:42.277Z,8.53
2018-07-21T02:11:10.520Z,8.33
2018-07-21T02:13:38.708Z,8.03
2018-07-21T02:16:06.747Z,9.03
2018-07-21T02:18:34.852Z,9.00
2018-07-21T02:21:03.159Z,8.57
2018-07-21T02:23:31.242Z,8.03
2018-07-21T02:25:59.403Z,8.50
2018-07-21T02:28:27.477Z,8.40
2018-07-21T02:30:55.523Z,8.47
2018-07-21T02:33:23.809Z,8.00
2018-07-21T02:35:52.132Z,8.67
2018-07-21T02:38:20.196Z,8.23
2018-07-21T02:40:48.213Z,9.43
2018-07-21T02:43:16.264Z,8.47
2018-07-21T02:45:44.256Z,9.40
2018-07-21T02:48:12.311Z,9.10
2018-07-21T02:50:40.330Z,9.20
2018-07-21T02:53:08.342Z,8.33
2018-07-21T02:55:36.463Z,8.80
2018-07-21T02:58:04.480Z,8.70
2018-07-21T03:00:32.582Z,8.90
2018-07-21T03:03:00.702Z,9.40
2018-07-21T03:05:28.974Z,9.17
2018-07-21T03:07:57.166Z,9.07
2018-07-21T03:10:25.321Z,8.83
2018-07-21T03:12:53.519Z,8.20
2018-07-21T03:15:21.568Z,8.40
2018-07-21T03:17:49.650Z,8.43
2018-07-21T03:20:17.731Z,9.27
2018-07-21T03:22:45.747Z,8.00
2018-07-21T03:25:13.854Z,8.07
2018-07-21T03:27:41.937Z,8.63
2018-07-21T03:30:10.068Z,8.20
2018-07-21T03:32:38.129Z,8.67
2018-07-21T03:35:06.207Z,8.13
2018-07-21T03:37:34.283Z,7.77
2018-07-21T03:40:02.529Z,7.30
2018-07-21T03:42:30.553Z,6.47
2018-07-21T03:44:58.558Z,5.43
2018-07-21T03:47:26.596Z,6.67
2018-07-21T03:49:54.651Z,6.30
2018-07-21T03:52:22.748Z,6.73
2018-07-21T03:54:50.784Z,6.93
2018-07-21T03:57:18.821Z,6.10
2018-07-21T03:59:46.900Z,5.73
2018-07-21T04:02:15.168Z,5.87
2018-07-21T04:04:43.358Z,5.63
2018-07-21T04:07:11.756Z,5.40
2018-07-21T04:09:39.861Z,5.07
2018-07-21T04:12:07.967Z,6.13
2018-07-21T04:14:36.060Z,5.80
2018-07-21T04:17:04.352Z,6.67
2018-07-21T04:19:32.520Z,5.23
2018-07-21T04:22:00.869Z,5.17
2018-07-21T04:24:29.326Z,5.83
2018-07-21T04:26:57.504Z,7.67
2018-07-21T04:29:25.562Z,16.13
2018-07-21T04:31:53.817Z,15.37
2018-07-21T04:34:22.045Z,18.70
2018-07-21T04:36:50.438Z,12.40
2018-07-21T04:39:19.157Z,9.23
2018-07-21T04:41:47.997Z,7.10
2018-07-21T04:44:16.322Z,9.50
2018-07-21T04:46:44.736Z,6.30
2018-07-21T04:49:13.503Z,7.43
2018-07-21T04:51:42.087Z,9.40
2018-07-21T04:54:10.629Z,9.47
2018-07-21T04:56:39.028Z,7.57
2018-07-21T04:59:07.543Z,6.00
2018-07-21T05:01:36.010Z,5.73
2018-07-21T05:04:04.636Z,5.87
2018-07-21T05:06:33.028Z,5.87
2018-07-21T05:09:01.577Z,7.23
2018-07-21T05:11:30.190Z,6.00
2018-07-21T05:13:58.627Z,5.70
2018-07-21T05:16:27.490Z,7.80
2018-07-21T05:18:56.027Z,7.10
2018-07-21T05:21:24.452Z,7.23
2018-07-21T05:23:52.925Z,7.70
2018-07-21T05:26:21.290Z,7.40
2018-07-21T05:28:49.666Z,6.57
2018-07-21T05:31:18.287Z,6.70
2018-07-21T05:33:46.747Z,7.40
2018-07-21T05:36:15.104Z,6.93
2018-07-21T05:38:43.529Z,7.90
2018-07-21T05:41:12.073Z,7.73
2018-07-21T05:43:40.801Z,8.03
2018-07-21T05:46:09.424Z,7.37
2018-07-21T05:48:37.043Z,7.40
2018-07-21T05:51:05.481Z,7.17
2018-07-21T05:53:33.966Z,7.00
2018-07-21T05:56:02.166Z,8.27
2018-07-21T05:58:30.220Z,6.60
2018-07-21T06:00:58.270Z,7.43
2018-07-21T06:03:26.676Z,7.97
2018-07-21T06:05:55.037Z,7.00
2018-07-21T06:08:23.416Z,7.20
2018-07-21T06:10:51.847Z,6.80
2018-07-21T06:13:20.346Z,7.20
2018-07-21T06:15:48.920Z,7.23
2018-07-21T06:18:17.401Z,7.73
2018-07-21T06:20:45.860Z,7.70
2018-07-21T06:23:14.084Z,7.40
2018-07-21T06:25:42.291Z,8.47
2018-07-21T06:28:10.434Z,7.67
2018-07-21T06:30:38.530Z,7.77
2018-07-21T06:33:06.798Z,7.33
2018-07-21T06:35:35.037Z,7.33
2018-07-21T06:38:03.052Z,8.03
2018-07-21T06:40:31.188Z,7.53
2018-07-21T06:42:59.352Z,7.47
2018-07-21T06:45:27.443Z,6.70
2018-07-21T06:47:55.719Z,8.10
2018-07-21T06:50:23.970Z,6.80
2018-07-21T06:52:52.013Z,6.80
2018-07-21T06:55:20.221Z,7.30
2018-07-21T06:57:48.539Z,7.47
2018-07-21T07:00:16.924Z,8.57
2018-07-21T07:02:45.366Z,7.00
2018-07-21T07:05:13.983Z,7.47
2018-07-21T07:07:42.345Z,6.67
2018-07-21T07:10:10.900Z,6.77
2018-07-21T07:12:39.387Z,7.07
2018-07-21T07:15:07.884Z,6.43
2018-07-21T07:17:36.451Z,6.63
2018-07-21T07:20:05.485Z,6.13
2018-07-21T07:22:34.304Z,6.17
2018-07-21T07:25:02.965Z,6.13
2018-07-21T07:27:31.822Z,5.40
2018-07-21T07:30:00.659Z,5.80
2018-07-21T07:32:32.610Z,5.40
2018-07-21T07:35:01.206Z,5.70
2018-07-21T07:37:30.524Z,5.77
2018-07-21T07:39:58.976Z,5.00
2018-07-21T07:42:27.527Z,4.80
2018-07-21T07:44:56.233Z,5.00
2018-07-21T07:47:24.941Z,5.53
2018-07-21T07:49:53.551Z,5.17
2018-07-21T07:52:22.103Z,5.10
2018-07-21T07:54:50.822Z,6.30
2018-07-21T07:57:19.131Z,5.70
2018-07-21T07:59:47.323Z,4.40
2018-07-21T08:02:15.640Z,6.70
2018-07-21T08:04:44.366Z,8.78
2018-07-21T08:07:12.989Z,4.67
2018-07-21T08:09:41.391Z,4.33
2018-07-21T08:12:09.924Z,4.78
2018-07-21T08:14:38.530Z,4.28
2018-07-21T08:17:06.986Z,5.60
2018-07-21T08:19:35.375Z,4.15
2018-07-21T08:22:03.983Z,4.85
2018-07-21T08:24:32.443Z,4.25
2018-07-21T08:27:00.647Z,4.55
2018-07-21T08:29:28.956Z,3.87
2018-07-21T08:31:57.226Z,4.65
2018-07-21T08:34:25.492Z,3.80
2018-07-21T08:36:54.276Z,4.42
2018-07-21T08:39:24.857Z,4.17
2018-07-21T08:41:53.349Z,4.30
2018-07-21T08:44:21.689Z,3.40
2018-07-21T08:46:50.179Z,3.60
2018-07-21T08:49:18.660Z,3.67
2018-07-21T08:51:46.997Z,4.12
2018-07-21T08:54:15.354Z,4.47
2018-07-21T08:56:43.836Z,3.98
2018-07-21T08:59:12.072Z,3.90
2018-07-21T09:01:40.267Z,3.77
2018-07-21T09:04:08.763Z,3.92
2018-07-21T09:06:37.186Z,4.05
2018-07-21T09:09:09.359Z,4.37
2018-07-21T09:11:37.621Z,4.05
2018-07-21T09:14:05.789Z,3.85
2018-07-21T09:16:34.154Z,4.22
2018-07-21T09:19:02.634Z,4.58
2018-07-21T09:21:30.952Z,4.70
2018-07-21T09:23:59.152Z,4.65
2018-07-21T09:26:27.361Z,4.95
2018-07-21T09:28:55.830Z,4.60
2018-07-21T09:31:24.093Z,4.80
2018-07-21T09:33:52.701Z,5.12
2018-07-21T09:36:21.479Z,3.90
2018-07-21T09:38:50.807Z,4.35
2018-07-21T09:41:19.424Z,4.17
2018-07-21T09:43:47.809Z,5.12
2018-07-21T09:46:15.978Z,4.50
2018-07-21T09:48:46.308Z,4.45
2018-07-21T09:51:14.652Z,4.17
2018-07-21T09:53:43.000Z,4.50
2018-07-21T09:56:11.502Z,3.83
2018-07-21T09:58:39.879Z,3.77
2018-07-21T10:01:08.184Z,3.83
2018-07-21T10:03:36.533Z,4.65
2018-07-21T10:06:04.794Z,4.35
2018-07-21T10:08:34.170Z,4.10
2018-07-21T10:11:02.506Z,3.58
2018-07-21T10:13:30.631Z,4.15
2018-07-21T10:15:59.037Z,4.62
2018-07-21T10:18:27.393Z,3.92
2018-07-21T10:20:55.573Z,4.10
2018-07-21T10:23:23.880Z,4.55
2018-07-21T10:25:57.548Z,4.10
2018-07-21T10:28:31.806Z,4.40
2018-07-21T10:30:59.935Z,4.12
2018-07-21T10:33:28.210Z,3.42
2018-07-21T10:35:56.646Z,3.08
2018-07-21T10:38:25.132Z,3.05
2018-07-21T10:40:53.958Z,3.35
2018-07-21T10:43:22.424Z,3.47
2018-07-21T10:45:50.719Z,3.05
2018-07-21T10:48:21.022Z,2.85
2018-07-21T10:50:49.474Z,3.22
2018-07-21T10:53:18.078Z,3.42
2018-07-21T10:55:47.914Z,3.62
2018-07-21T10:58:16.525Z,3.27
2018-07-21T11:00:45.056Z,2.90
2018-07-21T11:03:13.694Z,2.40
2018-07-21T11:05:42.775Z,2.62
2018-07-21T11:08:11.363Z,2.40
2018-07-21T11:10:40.260Z,2.40
2018-07-21T11:13:08.768Z,2.58
2018-07-21T11:15:37.380Z,2.20
2018-07-21T11:18:06.977Z,2.75
2018-07-21T11:20:35.748Z,2.45
2018-07-21T11:23:04.518Z,2.25
2018-07-21T11:25:32.957Z,2.60
2018-07-21T11:28:01.450Z,2.72
2018-07-21T11:30:29.849Z,2.52
2018-07-21T11:32:58.499Z,2.75
2018-07-21T11:35:27.100Z,2.55
2018-07-21T11:37:56.061Z,2.42
2018-07-21T11:40:24.884Z,2.62
2018-07-21T11:42:53.744Z,2.60
2018-07-21T11:45:22.261Z,2.70
2018-07-21T11:47:50.853Z,2.45
2018-07-21T11:50:19.243Z,2.52
2018-07-21T11:52:47.754Z,2.85
2018-07-21T11:55:16.436Z,2.40
2018-07-21T11:57:45.031Z,2.40
2018-07-21T12:00:13.581Z,2.35
2018-07-21T12:02:42.039Z,2.60
2018-07-21T12:05:10.809Z,2.75
2018-07-21T12:07:40.095Z,2.67
2018-07-21T12:10:08.589Z,2.58
2018-07-21T12:12:36.851Z,2.58
2018-07-21T12:15:05.482Z,4.22
2018-07-21T12:17:33.870Z,2.83
2018-07-21T12:20:02.187Z,2.90
2018-07-21T12:22:30.620Z,2.70
2018-07-21T12:24:58.993Z,2.62
2018-07-21T12:27:28.040Z,2.60
2018-07-21T12:29:57.043Z,2.65
2018-07-21T12:32:26.401Z,3.05
2018-07-21T12:34:59.908Z,3.67
2018-07-21T12:37:30.932Z,2.77
2018-07-21T12:39:59.795Z,2.58
2018-07-21T12:42:28.526Z,2.50
2018-07-21T12:44:57.145Z,2.90
2018-07-21T12:47:25.914Z,2.50
2018-07-21T12:49:54.461Z,2.50
2018-07-21T12:52:23.035Z,2.25
2018-07-21T12:54:51.394Z,2.55
2018-07-21T12:57:19.974Z,2.55
2018-07-21T12:59:48.868Z,2.37
2018-07-21T13:02:17.424Z,2.50
2018-07-21T13:04:45.877Z,2.72
2018-07-21T13:07:14.702Z,2.75
2018-07-21T13:09:43.799Z,2.20
2018-07-21T13:12:12.791Z,2.85
2018-07-21T13:14:41.711Z,2.52
2018-07-21T13:17:11.236Z,2.27
2018-07-21T13:19:40.727Z,2.40
2018-07-21T13:22:09.945Z,2.20
2018-07-21T13:24:38.560Z,2.70
2018-07-21T13:27:07.632Z,2.10
2018-07-21T13:29:36.467Z,2.70
2018-07-21T13:32:04.952Z,2.90
2018-07-21T13:34:33.527Z,2.60
2018-07-21T13:37:02.477Z,2.58
2018-07-21T13:39:31.206Z,2.52
2018-07-21T13:41:59.821Z,2.45
2018-07-21T13:44:28.462Z,2.87
2018-07-21T13:46:57.229Z,2.90
2018-07-21T13:49:26.020Z,3.17
2018-07-21T13:51:54.780Z,2.58
2018-07-21T13:54:23.190Z,3.70
2018-07-21T13:56:52.138Z,3.20
2018-07-21T13:59:21.036Z,2.92
2018-07-21T14:01:50.278Z,2.67
2018-07-21T14:04:19.128Z,2.87
2018-07-21T14:06:47.612Z,2.75
2018-07-21T14:09:16.195Z,2.70
2018-07-21T14:11:44.631Z,2.80
2018-07-21T14:14:13.624Z,2.90
2018-07-21T14:16:42.163Z,3.67
2018-07-21T14:19:10.744Z,2.77
2018-07-21T14:21:39.159Z,3.47
2018-07-21T14:24:07.849Z,4.62
2018-07-21T14:26:36.388Z,3.65
2018-07-21T14:29:05.231Z,2.98
2018-07-21T14:31:33.675Z,7.05
2018-07-21T14:34:02.588Z,2.80
2018-07-21T14:36:31.721Z,2.72
2018-07-21T14:39:00.108Z,3.17
2018-07-21T14:41:28.573Z,3.62
2018-07-21T14:43:57.146Z,3.33
2018-07-21T14:46:25.656Z,3.10
2018-07-21T14:48:54.183Z,3.95
2018-07-21T14:51:22.807Z,3.60
2018-07-21T14:53:51.280Z,4.00
2018-07-21T14:56:19.613Z,3.33
2018-07-21T14:58:48.153Z,4.00
2018-07-21T15:01:16.844Z,3.27
2018-07-21T15:03:45.417Z,3.50
2018-07-21T15:06:14.371Z,3.47
2018-07-21T15:08:43.012Z,3.35
2018-07-21T15:11:11.640Z,2.95
2018-07-21T15:13:40.482Z,2.80
2018-07-21T15:16:08.971Z,2.92
2018-07-21T15:18:37.410Z,2.80
2018-07-21T15:21:06.059Z,5.10
2018-07-21T15:23:34.505Z,3.92
2018-07-21T15:26:03.063Z,3.67
2018-07-21T15:28:31.874Z,3.95
2018-07-21T15:31:00.409Z,3.67
2018-07-21T15:33:29.078Z,3.40
2018-07-21T15:35:57.792Z,3.40
2018-07-21T15:38:26.309Z,3.25
2018-07-21T15:40:54.792Z,3.90
2018-07-21T15:43:23.354Z,5.85
2018-07-21T15:45:52.270Z,5.87
2018-07-21T15:48:21.086Z,3.85
2018-07-21T15:50:49.535Z,3.52
2018-07-21T15:53:18.072Z,3.70
2018-07-21T15:55:46.572Z,4.20
2018-07-21T15:58:15.143Z,3.45
2018-07-21T16:00:43.572Z,3.70
2018-07-21T16:03:12.204Z,2.95
2018-07-21T16:05:40.757Z,3.17
2018-07-21T16:08:09.319Z,3.50
2018-07-21T16:10:37.850Z,3.47
2018-07-21T16:13:06.964Z,3.00
2018-07-21T16:15:35.546Z,3.72
2018-07-21T16:18:04.251Z,3.42
2018-07-21T16:20:33.141Z,3.25
2018-07-21T16:23:01.903Z,3.70
2018-07-21T16:25:31.526Z,3.90
2018-07-21T16:28:00.696Z,3.60
2018-07-21T16:30:29.331Z,3.80
2018-07-21T16:32:57.586Z,3.98
2018-07-21T16:35:25.771Z,3.10
2018-07-21T16:37:54.562Z,3.80
2018-07-21T16:40:23.156Z,3.70
2018-07-21T16:42:51.487Z,4.03
2018-07-21T16:45:19.788Z,3.10
2018-07-21T16:47:48.106Z,4.10
2018-07-21T16:50:16.553Z,3.55
2018-07-21T16:52:45.399Z,3.77
2018-07-21T16:55:15.530Z,3.47
2018-07-21T16:57:44.172Z,3.55
2018-07-21T17:00:12.762Z,3.60
2018-07-21T17:02:41.177Z,3.77
2018-07-21T17:05:09.783Z,3.95
2018-07-21T17:07:38.488Z,3.98
2018-07-21T17:10:07.080Z,3.67
2018-07-21T17:12:35.640Z,3.70
2018-07-21T17:15:04.533Z,3.90
2018-07-21T17:17:33.040Z,4.30
2018-07-21T17:20:01.442Z,4.50
2018-07-21T17:22:33.545Z,3.13
2018-07-21T17:25:03.768Z,4.03
2018-07-21T17:27:33.628Z,3.30
2018-07-21T17:30:02.130Z,3.90
2018-07-21T17:32:30.582Z,4.30
2018-07-21T17:34:58.943Z,4.40
2018-07-21T17:37:27.278Z,4.10
2018-07-21T17:39:55.684Z,3.70
2018-07-21T17:42:24.089Z,3.77
2018-07-21T17:44:52.499Z,4.53
2018-07-21T17:47:20.984Z,4.17
2018-07-21T17:49:49.306Z,4.20
2018-07-21T17:52:17.719Z,4.43
2018-07-21T17:54:47.884Z,4.80
2018-07-21T17:57:16.172Z,4.90
2018-07-21T17:59:44.451Z,4.77
2018-07-21T18:02:13.541Z,4.53
2018-07-21T18:04:41.918Z,4.83
2018-07-21T18:07:10.367Z,4.67
2018-07-21T18:09:39.080Z,4.23
2018-07-21T18:12:07.441Z,4.67
2018-07-21T18:14:36.208Z,4.50
2018-07-21T18:17:05.057Z,4.50
2018-07-21T18:19:33.481Z,3.93
2018-07-21T18:22:02.023Z,4.47
2018-07-21T18:24:30.666Z,4.30
2018-07-21T18:26:59.148Z,4.23
2018-07-21T18:29:27.569Z,4.53
2018-07-21T18:31:55.962Z,4.40
2018-07-21T18:34:24.294Z,5.20
2018-07-21T18:36:52.569Z,4.27
2018-07-21T18:39:20.989Z,4.80
2018-07-21T18:41:49.263Z,4.67
2018-07-21T18:44:17.687Z,4.20
2018-07-21T18:46:47.011Z,5.27
2018-07-21T18:49:15.390Z,5.07
2018-07-21T18:51:43.808Z,4.77
2018-07-21T18:54:12.252Z,4.93
2018-07-21T18:56:40.649Z,4.77
2018-07-21T18:59:09.217Z,5.27
2018-07-21T19:01:38.340Z,5.03
2018-07-21T19:04:06.875Z,4.97
2018-07-21T19:06:35.468Z,5.13
2018-07-21T19:09:06.057Z,5.10
2018-07-21T19:11:34.386Z,5.47
2018-07-21T19:14:02.782Z,4.90
2018-07-21T19:16:36.753Z,5.27
2018-07-21T19:19:05.038Z,5.63
2018-07-21T19:21:33.589Z,5.07
2018-07-21T19:24:02.217Z,5.17
2018-07-21T19:26:36.184Z,5.63
2018-07-21T19:29:04.779Z,5.93
2018-07-21T19:31:33.259Z,5.23
2018-07-21T19:34:01.773Z,5.60
2018-07-21T19:36:30.322Z,5.63
2018-07-21T19:38:58.807Z,5.20
2018-07-21T19:41:32.902Z,5.53
2018-07-21T19:44:01.260Z,5.60
2018-07-21T19:46:29.809Z,5.53
2018-07-21T19:48:58.366Z,5.43
2018-07-21T19:51:26.803Z,5.97
2018-07-21T19:53:55.141Z,5.30
2018-07-21T19:56:23.651Z,5.13
2018-07-21T19:58:52.171Z,4.90
2018-07-21T20:01:20.695Z,5.67
2018-07-21T20:03:49.051Z,5.60
2018-07-21T20:06:17.329Z,5.50
2018-07-21T20:08:45.707Z,5.57
2018-07-21T20:11:13.988Z,5.70
2018-07-21T20:13:42.376Z,5.50
2018-07-21T20:16:11.218Z,5.57
2018-07-21T20:18:39.832Z,5.20
2018-07-21T20:21:08.267Z,5.70
2018-07-21T20:23:37.022Z,5.10
2018-07-21T20:26:05.432Z,5.80
2018-07-21T20:28:34.098Z,5.70
2018-07-21T20:31:02.538Z,5.60
2018-07-21T20:33:31.110Z,5.20
2018-07-21T20:35:59.480Z,6.13
2018-07-21T20:38:27.974Z,5.60
2018-07-21T20:40:56.540Z,6.13
2018-07-21T20:43:24.979Z,6.13
2018-07-21T20:45:53.369Z,5.63
2018-07-21T20:48:21.912Z,5.17
2018-07-21T20:50:50.286Z,5.23
2018-07-21T20:53:18.625Z,5.57
2018-07-21T20:55:47.230Z,5.30
2018-07-21T20:58:15.460Z,5.00
2018-07-21T21:00:43.838Z,5.97
2018-07-21T21:03:12.487Z,5.77
2018-07-21T21:05:40.807Z,6.00
2018-07-21T21:08:09.117Z,6.10
2018-07-21T21:10:37.491Z,6.13
2018-07-21T21:13:06.185Z,5.40
2018-07-21T21:15:34.598Z,5.33
2018-07-21T21:18:02.918Z,6.70
2018-07-21T21:20:31.215Z,5.90
2018-07-21T21:22:59.667Z,5.60
2018-07-21T21:25:28.163Z,5.67
2018-07-21T21:27:56.459Z,5.50
2018-07-21T21:30:24.904Z,5.80
2018-07-21T21:32:53.310Z,5.90
2018-07-21T21:35:21.696Z,5.90
2018-07-21T21:37:50.020Z,5.37
2018-07-21T21:40:18.413Z,6.30
2018-07-21T21:42:46.666Z,5.70
2018-07-21T21:45:14.952Z,6.07
2018-07-21T21:47:43.327Z,5.63
2018-07-21T21:50:11.625Z,5.60
2018-07-21T21:52:39.824Z,5.97
2018-07-21T21:55:08.295Z,5.73
2018-07-21T21:57:36.527Z,5.60
2018-07-21T22:00:08.454Z,5.87
2018-07-21T22:02:36.884Z,5.23
2018-07-21T22:05:05.480Z,6.00
2018-07-21T22:07:33.870Z,6.03
2018-07-21T22:10:02.242Z,5.53
2018-07-21T22:12:30.730Z,5.73
2018-07-21T22:14:59.296Z,6.47
2018-07-21T22:17:27.674Z,6.33
2018-07-21T22:19:56.115Z,5.83
2018-07-21T22:22:24.531Z,6.57
2018-07-21T22:24:52.850Z,5.93
2018-07-21T22:27:21.137Z,6.77
2018-07-21T22:29:49.559Z,6.30
2018-07-21T22:32:17.940Z,5.43
2018-07-21T22:34:46.226Z,5.73
2018-07-21T22:37:14.519Z,6.90
2018-07-21T22:39:42.871Z,6.50
2018-07-21T22:42:11.209Z,7.03
2018-07-21T22:44:39.645Z,6.47
2018-07-21T22:47:08.027Z,6.57
2018-07-21T22:49:36.264Z,6.33
2018-07-21T22:52:04.832Z,6.60
2018-07-21T22:54:33.320Z,6.93
2018-07-21T22:57:01.678Z,7.07
2018-07-21T22:59:30.092Z,6.60
2018-07-21T23:01:58.526Z,7.27
2018-07-21T23:04:27.022Z,5.83
2018-07-21T23:06:55.463Z,6.70
2018-07-21T23:09:23.820Z,5.80
2018-07-21T23:11:52.321Z,6.90
2018-07-21T23:14:21.137Z,6.67
2018-07-21T23:16:49.656Z,6.73
2018-07-21T23:19:18.139Z,7.33
2018-07-21T23:21:46.543Z,6.60
2018-07-21T23:24:15.238Z,6.63
2018-07-21T23:26:43.598Z,6.40
2018-07-21T23:29:11.921Z,6.37
2018-07-21T23:31:40.293Z,6.30
2018-07-21T23:34:08.538Z,6.23
2018-07-21T23:36:36.860Z,6.23
2018-07-21T23:39:07.841Z,6.83
2018-07-21T23:41:36.169Z,6.20
2018-07-21T23:44:04.475Z,5.97
2018-07-21T23:46:32.647Z,7.40
2018-07-21T23:49:00.902Z,6.87
2018-07-21T23:51:29.152Z,6.57
2018-07-21T23:53:57.338Z,6.50
2018-07-21T23:56:25.544Z,5.97
2018-07-21T23:58:53.804Z,6.70
